createdAt,value
2018-07-17T00:01:14.889Z,17.48
2018-07-17T00:03:43.485Z,17.44
2018-07-17T00:06:11.830Z,17.38
2018-07-17T00:08:40.184Z,17.37
2018-07-17T00:11:09.513Z,17.36
2018-07-17T00:13:38.920Z,17.29
2018-07-17T00:16:09.322Z,17.28
2018-07-17T00:18:39.570Z,17.22
2018-07-17T00:21:10.111Z,17.19
2018-07-17T00:23:39.603Z,17.16
2018-07-17T00:26:10.190Z,17.10
2018-07-17T00:28:39.618Z,17.07
2018-07-17T00:31:09.493Z,17.25
2018-07-17T00:33:39.420Z,17.31
2018-07-17T00:36:09.716Z,17.15
2018-07-17T00:38:38.982Z,17.06
2018-07-17T00:41:08.045Z,17.01
2018-07-17T00:43:38.092Z,16.94
2018-07-17T00:46:08.041Z,16.92
2018-07-17T00:48:37.940Z,16.98
2018-07-17T00:51:06.990Z,16.95
2018-07-17T00:53:37.052Z,16.95
2018-07-17T00:56:06.218Z,16.93
2018-07-17T00:58:35.444Z,16.85
2018-07-17T01:01:04.080Z,16.79
2018-07-17T01:03:38.700Z,16.88
2018-07-17T01:06:13.924Z,16.84
2018-07-17T01:08:47.772Z,16.81
2018-07-17T01:11:21.422Z,16.86
2018-07-17T01:13:55.507Z,16.85
2018-07-17T01:16:23.850Z,16.71
2018-07-17T01:18:52.217Z,16.64
2018-07-17T01:21:20.609Z,16.63
2018-07-17T01:23:49.857Z,16.57
2018-07-17T01:26:19.181Z,16.54
2018-07-17T01:28:48.181Z,16.53
2018-07-17T01:31:16.533Z,16.51
2018-07-17T01:33:44.881Z,16.49
2018-07-17T01:36:13.917Z,16.51
2018-07-17T01:38:43.329Z,16.57
2018-07-17T01:41:11.674Z,16.58
2018-07-17T01:43:40.033Z,16.63
2018-07-17T01:46:09.281Z,16.65
2018-07-17T01:48:38.019Z,16.69
2018-07-17T01:51:07.007Z,16.68
2018-07-17T01:53:35.338Z,16.65
2018-07-17T01:56:03.722Z,16.74
2018-07-17T01:58:32.068Z,16.74
2018-07-17T02:01:00.528Z,16.77
2018-07-17T02:03:28.865Z,16.75
2018-07-17T02:05:57.234Z,16.81
2018-07-17T02:08:25.573Z,16.80
2018-07-17T02:10:53.971Z,16.84
2018-07-17T02:13:22.321Z,16.89
2018-07-17T02:15:50.688Z,16.90
2018-07-17T02:18:20.046Z,16.94
2018-07-17T02:20:49.309Z,16.93
2018-07-17T02:23:18.650Z,16.92
2018-07-17T02:25:48.263Z,16.93
2018-07-17T02:28:16.653Z,17.00
2018-07-17T02:30:44.993Z,17.01
2018-07-17T02:33:13.365Z,17.06
2018-07-17T02:35:41.720Z,17.01
2018-07-17T02:38:10.060Z,17.04
2018-07-17T02:40:39.155Z,17.10
2018-07-17T02:43:08.136Z,17.14
2018-07-17T02:45:37.185Z,17.28
2018-07-17T02:48:05.572Z,17.31
2018-07-17T02:50:33.940Z,17.32
2018-07-17T02:53:02.296Z,17.43
2018-07-17T02:55:30.657Z,17.47
2018-07-17T02:57:58.993Z,17.51
2018-07-17T03:00:27.369Z,17.57
2018-07-17T03:02:55.869Z,17.53
2018-07-17T03:05:24.233Z,17.62
2018-07-17T03:07:52.581Z,17.56
2018-07-17T03:10:20.929Z,17.59
2018-07-17T03:12:49.281Z,17.66
2018-07-17T03:15:18.125Z,17.58
2018-07-17T03:17:46.475Z,17.55
2018-07-17T03:20:14.826Z,17.53
2018-07-17T03:22:43.183Z,17.46
2018-07-17T03:25:11.518Z,17.46
2018-07-17T03:27:39.866Z,17.51
2018-07-17T03:30:08.932Z,17.85
2018-07-17T03:32:38.882Z,17.77
2018-07-17T03:35:08.017Z,17.68
2018-07-17T03:37:37.181Z,17.71
2018-07-17T03:40:05.749Z,17.58
2018-07-17T03:42:34.122Z,17.56
2018-07-17T03:45:02.537Z,17.58
2018-07-17T03:47:30.879Z,17.65
2018-07-17T03:49:59.234Z,17.74
2018-07-17T03:52:27.578Z,17.71
2018-07-17T03:54:55.987Z,17.69
2018-07-17T03:57:24.327Z,17.67
2018-07-17T03:59:52.659Z,17.64
2018-07-17T04:02:21.005Z,17.62
2018-07-17T04:04:49.391Z,17.64
2018-07-17T04:07:18.382Z,17.71
2018-07-17T04:09:47.795Z,17.81
2018-07-17T04:12:17.273Z,17.83
2018-07-17T04:14:46.799Z,17.87
2018-07-17T04:17:15.834Z,18.04
2018-07-17T04:19:44.169Z,18.20
2018-07-17T04:22:12.544Z,18.15
2018-07-17T04:24:40.901Z,18.36
2018-07-17T04:27:10.251Z,18.36
2018-07-17T04:29:39.870Z,18.41
2018-07-17T04:32:09.004Z,18.33
2018-07-17T04:34:38.378Z,18.29
2018-07-17T04:37:07.287Z,18.30
2018-07-17T04:39:35.649Z,18.42
2018-07-17T04:42:04.018Z,18.49
2018-07-17T04:44:32.366Z,18.55
2018-07-17T04:47:00.727Z,18.65
2018-07-17T04:49:29.089Z,18.62
2018-07-17T04:51:58.352Z,18.53
2018-07-17T04:54:26.688Z,18.53
2018-07-17T04:56:55.038Z,18.64
2018-07-17T04:59:23.401Z,18.67
2018-07-17T05:01:51.795Z,18.92
2018-07-17T05:04:20.149Z,19.04
2018-07-17T05:06:48.977Z,19.10
2018-07-17T05:09:18.344Z,19.05
2018-07-17T05:11:47.670Z,19.21
2018-07-17T05:14:17.194Z,19.06
2018-07-17T05:16:45.540Z,19.03
2018-07-17T05:19:13.888Z,18.98
2018-07-17T05:21:42.238Z,18.88
2018-07-17T05:24:10.582Z,19.22
2018-07-17T05:26:40.294Z,19.30
2018-07-17T05:29:09.827Z,19.49
2018-07-17T05:31:38.224Z,19.70
2018-07-17T05:34:06.657Z,19.77
2018-07-17T05:36:35.022Z,19.95
2018-07-17T05:39:03.889Z,20.09
2018-07-17T05:41:32.277Z,20.16
2018-07-17T05:44:00.610Z,20.19
2018-07-17T05:46:29.055Z,20.22
2018-07-17T05:48:57.438Z,20.30
2018-07-17T05:51:25.822Z,20.18
2018-07-17T05:53:54.186Z,20.24
2018-07-17T05:56:22.553Z,20.23
2018-07-17T05:58:51.173Z,20.24
2018-07-17T06:01:19.999Z,20.28
2018-07-17T06:03:49.359Z,20.34
2018-07-17T06:06:18.495Z,20.43
2018-07-17T06:08:47.905Z,20.41
2018-07-17T06:11:16.918Z,20.39
2018-07-17T06:13:46.024Z,20.44
2018-07-17T06:16:14.670Z,20.37
2018-07-17T06:18:43.042Z,20.41
2018-07-17T06:21:11.398Z,20.56
2018-07-17T06:23:40.341Z,20.71
2018-07-17T06:26:09.786Z,20.73
2018-07-17T06:28:39.365Z,20.80
2018-07-17T06:31:07.725Z,20.88
2018-07-17T06:33:36.065Z,20.91
2018-07-17T06:36:04.398Z,20.99
2018-07-17T06:38:32.807Z,21.08
2018-07-17T06:41:01.201Z,21.06
2018-07-17T06:43:29.572Z,21.20
2018-07-17T06:45:57.974Z,21.18
2018-07-17T06:48:26.333Z,21.39
2018-07-17T06:50:54.736Z,21.55
2018-07-17T06:53:23.149Z,21.63
2018-07-17T06:55:51.519Z,21.82
2018-07-17T06:58:20.106Z,21.93
2018-07-17T07:00:49.751Z,22.08
2018-07-17T07:03:18.821Z,22.38
2018-07-17T07:05:48.147Z,22.18
2018-07-17T07:08:16.566Z,22.44
2018-07-17T07:10:44.986Z,22.52
2018-07-17T07:13:13.332Z,22.75
2018-07-17T07:15:41.678Z,22.61
2018-07-17T07:18:10.053Z,22.83
2018-07-17T07:20:39.074Z,22.76
2018-07-17T07:23:07.771Z,22.93
2018-07-17T07:25:36.125Z,22.87
2018-07-17T07:28:04.543Z,22.80
2018-07-17T07:30:32.966Z,22.93
2018-07-17T07:33:01.317Z,23.04
2018-07-17T07:35:29.672Z,23.34
2018-07-17T07:37:58.023Z,23.23
2018-07-17T07:40:26.378Z,23.27
2018-07-17T07:42:54.922Z,23.30
2018-07-17T07:45:23.137Z,23.37
2018-07-17T07:47:51.490Z,23.54
2018-07-17T07:50:19.850Z,23.66
2018-07-17T07:52:49.638Z,23.70
2018-07-17T07:55:19.114Z,23.90
2018-07-17T07:57:49.097Z,24.05
2018-07-17T08:00:18.187Z,23.98
2018-07-17T08:02:47.581Z,24.16
2018-07-17T08:05:17.046Z,24.18
2018-07-17T08:07:45.385Z,24.36
2018-07-17T08:10:13.805Z,24.43
2018-07-17T08:12:42.180Z,24.71
2018-07-17T08:15:10.561Z,24.35
2018-07-17T08:17:39.029Z,24.52
2018-07-17T08:20:07.941Z,24.79
2018-07-17T08:22:36.318Z,24.63
2018-07-17T08:25:04.777Z,24.75
2018-07-17T08:27:33.234Z,24.70
2018-07-17T08:30:01.619Z,24.57
2018-07-17T08:32:29.980Z,24.55
2018-07-17T08:34:58.661Z,24.55
2018-07-17T08:37:27.047Z,24.47
2018-07-17T08:39:55.422Z,24.50
2018-07-17T08:42:23.777Z,24.74
2018-07-17T08:44:52.174Z,24.88
2018-07-17T08:47:20.519Z,24.97
2018-07-17T08:49:48.934Z,24.89
2018-07-17T08:52:18.281Z,24.94
2018-07-17T08:54:47.902Z,24.80
2018-07-17T08:57:17.753Z,24.85
2018-07-17T08:59:47.737Z,24.84
2018-07-17T09:02:16.942Z,24.89
2018-07-17T09:04:45.997Z,24.83
2018-07-17T09:07:14.355Z,24.87
2018-07-17T09:09:42.714Z,24.71
2018-07-17T09:12:11.102Z,24.96
2018-07-17T09:14:43.261Z,24.83
2018-07-17T09:17:11.750Z,24.95
2018-07-17T09:19:40.115Z,25.04
2018-07-17T09:22:09.484Z,25.18
2018-07-17T09:24:38.380Z,25.30
2018-07-17T09:27:06.815Z,25.48
2018-07-17T09:29:35.169Z,25.56
2018-07-17T09:32:03.526Z,25.56
2018-07-17T09:34:31.891Z,25.47
2018-07-17T09:37:00.241Z,25.65
2018-07-17T09:39:28.597Z,25.77
2018-07-17T09:41:56.945Z,25.85
2018-07-17T09:44:25.344Z,25.75
2018-07-17T09:46:53.686Z,26.00
2018-07-17T09:49:22.122Z,26.15
2018-07-17T09:51:50.672Z,26.29
2018-07-17T09:54:19.113Z,26.30
2018-07-17T09:56:48.542Z,26.39
2018-07-17T09:59:17.518Z,26.35
2018-07-17T10:01:51.094Z,26.59
2018-07-17T10:04:19.447Z,26.61
2018-07-17T10:06:48.755Z,26.49
2018-07-17T10:09:18.034Z,26.59
2018-07-17T10:11:47.138Z,26.68
2018-07-17T10:14:15.473Z,26.62
2018-07-17T10:16:43.816Z,26.49
2018-07-17T10:19:12.156Z,26.59
2018-07-17T10:21:40.502Z,26.70
2018-07-17T10:24:10.181Z,26.96
2018-07-17T10:26:39.302Z,27.02
2018-07-17T10:29:08.522Z,26.87
2018-07-17T10:31:37.332Z,27.00
2018-07-17T10:34:05.765Z,27.09
2018-07-17T10:36:34.134Z,27.24
2018-07-17T10:39:02.474Z,27.26
2018-07-17T10:41:30.838Z,27.02
2018-07-17T10:43:59.183Z,27.00
2018-07-17T10:46:27.541Z,27.04
2018-07-17T10:48:55.881Z,27.08
2018-07-17T10:51:24.248Z,27.13
2018-07-17T10:53:52.590Z,27.17
2018-07-17T10:56:20.949Z,27.10
2018-07-17T10:58:49.298Z,27.26
2018-07-17T11:01:18.511Z,27.34
2018-07-17T11:03:47.947Z,27.78
2018-07-17T11:06:18.465Z,27.93
2018-07-17T11:08:47.718Z,28.02
2018-07-17T11:11:17.030Z,28.27
2018-07-17T11:13:46.174Z,28.03
2018-07-17T11:16:14.954Z,27.96
2018-07-17T11:18:43.288Z,28.00
2018-07-17T11:21:11.626Z,28.08
2018-07-17T11:23:40.034Z,28.32
2018-07-17T11:26:08.447Z,28.38
2018-07-17T11:28:37.427Z,28.31
2018-07-17T11:31:05.761Z,28.32
2018-07-17T11:33:34.105Z,28.35
2018-07-17T11:36:02.433Z,28.65
2018-07-17T11:38:30.794Z,28.83
2018-07-17T11:40:59.137Z,29.12
2018-07-17T11:43:27.598Z,29.29
2018-07-17T11:45:55.937Z,29.07
2018-07-17T11:48:24.276Z,28.64
2018-07-17T11:50:52.658Z,28.34
2018-07-17T11:53:21.065Z,28.49
2018-07-17T11:55:49.437Z,28.34
2018-07-17T11:58:18.743Z,28.46
2018-07-17T12:00:48.099Z,28.61
2018-07-17T12:03:16.513Z,28.71
2018-07-17T12:05:44.902Z,29.08
2018-07-17T12:08:13.295Z,28.69
2018-07-17T12:10:41.639Z,28.95
2018-07-17T12:13:10.075Z,28.92
2018-07-17T12:15:38.476Z,29.04
2018-07-17T12:18:06.918Z,29.28
2018-07-17T12:20:35.584Z,28.98
2018-07-17T12:23:03.749Z,29.38
2018-07-17T12:25:32.110Z,29.64
2018-07-17T12:28:00.489Z,30.02
2018-07-17T12:30:28.851Z,30.52
2018-07-17T12:32:57.336Z,30.62
2018-07-17T12:35:25.721Z,30.88
2018-07-17T12:37:54.093Z,30.44
2018-07-17T12:40:22.426Z,30.26
2018-07-17T12:42:50.761Z,30.48
2018-07-17T12:45:19.106Z,30.51
2018-07-17T12:47:48.148Z,30.69
2018-07-17T12:50:16.502Z,31.18
2018-07-17T12:52:44.857Z,31.42
2018-07-17T12:55:13.225Z,31.13
2018-07-17T12:57:41.577Z,31.01
2018-07-17T13:00:10.537Z,30.56
2018-07-17T13:02:40.488Z,30.45
2018-07-17T13:05:09.737Z,30.49
2018-07-17T13:07:38.589Z,30.08
2018-07-17T13:10:07.560Z,29.78
2018-07-17T13:12:36.121Z,29.67
2018-07-17T13:15:05.406Z,29.37
2018-07-17T13:17:34.045Z,28.94
2018-07-17T13:20:02.337Z,28.65
2018-07-17T13:22:30.681Z,28.71
2018-07-17T13:24:59.054Z,28.73
2018-07-17T13:27:27.389Z,28.77
2018-07-17T13:29:55.799Z,28.86
2018-07-17T13:32:24.155Z,29.12
2018-07-17T13:34:52.508Z,29.62
2018-07-17T13:37:20.849Z,29.94
2018-07-17T13:39:49.177Z,30.24
2018-07-17T13:42:18.239Z,29.96
2018-07-17T13:44:46.656Z,29.89
2018-07-17T13:47:14.993Z,29.34
2018-07-17T13:49:43.328Z,29.09
2018-07-17T13:52:11.693Z,29.26
2018-07-17T13:54:41.423Z,29.64
2018-07-17T13:57:09.777Z,30.14
2018-07-17T13:59:38.603Z,30.69
2018-07-17T14:02:07.542Z,30.45
2018-07-17T14:04:36.289Z,30.30
2018-07-17T14:07:04.629Z,29.86
2018-07-17T14:09:32.978Z,29.90
2018-07-17T14:12:01.326Z,30.22
2018-07-17T14:14:29.677Z,30.18
2018-07-17T14:16:58.046Z,30.39
2018-07-17T14:19:26.409Z,30.16
2018-07-17T14:21:54.754Z,30.48
2018-07-17T14:24:23.112Z,30.34
2018-07-17T14:26:51.458Z,30.32
2018-07-17T14:29:19.815Z,30.72
2018-07-17T14:31:48.912Z,30.95
2018-07-17T14:34:17.810Z,30.87
2018-07-17T14:36:48.674Z,30.87
2018-07-17T14:39:18.066Z,30.48
2018-07-17T14:41:46.486Z,30.01
2018-07-17T14:44:14.818Z,29.63
2018-07-17T14:46:43.213Z,29.23
2018-07-17T14:49:11.561Z,28.88
2018-07-17T14:51:41.301Z,28.70
2018-07-17T14:54:10.731Z,28.54
2018-07-17T14:56:40.125Z,28.11
2018-07-17T14:59:09.580Z,27.94
2018-07-17T15:01:38.539Z,27.79
2018-07-17T15:04:07.900Z,27.40
2018-07-17T15:06:36.250Z,27.25
2018-07-17T15:09:06.050Z,27.10
2018-07-17T15:11:34.387Z,27.07
2018-07-17T15:14:02.741Z,27.61
2018-07-17T15:16:31.077Z,28.25
2018-07-17T15:18:59.458Z,28.90
2018-07-17T15:21:27.793Z,29.23
2018-07-17T15:23:56.130Z,29.35
2018-07-17T15:26:24.466Z,29.55
2018-07-17T15:28:52.809Z,29.52
2018-07-17T15:31:21.149Z,29.95
2018-07-17T15:33:49.500Z,30.03
2018-07-17T15:36:19.226Z,30.16
2018-07-17T15:38:48.106Z,30.04
2018-07-17T15:41:16.546Z,30.52
2018-07-17T15:43:44.889Z,30.53
2018-07-17T15:46:13.276Z,30.14
2018-07-17T15:48:41.754Z,29.75
2018-07-17T15:51:11.016Z,29.76
2018-07-17T15:53:40.551Z,29.21
2018-07-17T15:56:09.829Z,28.76
2018-07-17T15:58:38.559Z,28.79
2018-07-17T16:01:07.634Z,28.74
2018-07-17T16:03:36.023Z,28.61
2018-07-17T16:06:04.417Z,28.45
2018-07-17T16:08:32.793Z,27.96
2018-07-17T16:11:01.134Z,27.81
2018-07-17T16:13:29.591Z,27.46
2018-07-17T16:15:57.891Z,27.24
2018-07-17T16:18:26.218Z,27.08
2018-07-17T16:20:54.554Z,26.85
2018-07-17T16:23:22.893Z,26.63
2018-07-17T16:25:51.251Z,26.66
2018-07-17T16:28:19.592Z,26.58
2018-07-17T16:30:48.894Z,26.45
2018-07-17T16:33:18.585Z,26.21
2018-07-17T16:35:48.349Z,26.05
2018-07-17T16:38:17.730Z,25.91
2018-07-17T16:40:47.170Z,25.85
2018-07-17T16:43:15.509Z,25.72
2018-07-17T16:45:43.846Z,25.64
2018-07-17T16:48:12.258Z,25.46
2018-07-17T16:50:40.633Z,25.42
2018-07-17T16:53:09.945Z,25.51
2018-07-17T16:55:38.688Z,25.61
2018-07-17T16:58:08.760Z,25.71
2018-07-17T17:00:37.817Z,25.67
2018-07-17T17:03:06.215Z,25.59
2018-07-17T17:05:34.737Z,25.76
2018-07-17T17:08:03.242Z,25.85
2018-07-17T17:10:32.609Z,25.87
2018-07-17T17:13:00.979Z,25.83
2018-07-17T17:15:29.372Z,25.97
2018-07-17T17:17:57.730Z,25.90
2018-07-17T17:20:26.110Z,25.79
2018-07-17T17:22:54.462Z,25.61
2018-07-17T17:25:22.843Z,25.64
2018-07-17T17:27:51.192Z,25.46
2018-07-17T17:30:19.580Z,25.44
2018-07-17T17:32:49.092Z,25.29
2018-07-17T17:35:18.133Z,25.33
2018-07-17T17:37:46.484Z,25.32
2018-07-17T17:40:14.831Z,25.25
2018-07-17T17:42:43.182Z,25.11
2018-07-17T17:45:11.533Z,24.94
2018-07-17T17:47:40.027Z,24.86
2018-07-17T17:50:08.844Z,24.76
2018-07-17T17:52:37.641Z,24.75
2018-07-17T17:55:05.998Z,24.65
2018-07-17T17:57:34.376Z,24.67
2018-07-17T18:00:02.797Z,24.46
2018-07-17T18:02:31.150Z,24.44
2018-07-17T18:04:59.502Z,24.49
2018-07-17T18:07:27.921Z,24.44
2018-07-17T18:09:56.278Z,24.35
2018-07-17T18:12:24.645Z,24.36
2018-07-17T18:14:53.012Z,24.27
2018-07-17T18:17:21.407Z,24.19
2018-07-17T18:19:50.121Z,24.25
2018-07-17T18:22:18.512Z,24.02
2018-07-17T18:24:47.510Z,23.93
2018-07-17T18:27:16.486Z,23.85
2018-07-17T18:29:44.853Z,23.83
2018-07-17T18:32:13.273Z,23.52
2018-07-17T18:34:41.674Z,23.45
2018-07-17T18:37:11.286Z,23.51
2018-07-17T18:39:40.915Z,23.44
2018-07-17T18:42:11.023Z,23.29
2018-07-17T18:44:40.725Z,23.22
2018-07-17T18:47:10.720Z,23.09
2018-07-17T18:49:40.399Z,23.10
2018-07-17T18:52:10.472Z,23.11
2018-07-17T18:54:40.113Z,22.97
2018-07-17T18:57:09.012Z,22.84
2018-07-17T18:59:38.796Z,22.74
2018-07-17T19:02:08.913Z,22.84
2018-07-17T19:04:38.815Z,22.75
2018-07-17T19:07:08.781Z,22.69
2018-07-17T19:09:38.587Z,22.72
2018-07-17T19:12:08.835Z,22.63
2018-07-17T19:15:40.846Z,22.59
2018-07-17T19:18:09.662Z,22.50
2018-07-17T19:20:39.236Z,22.40
2018-07-17T19:23:09.229Z,22.33
2018-07-17T19:25:39.442Z,22.22
2018-07-17T19:28:09.313Z,22.16
2018-07-17T19:30:38.916Z,22.05
2018-07-17T19:33:08.882Z,21.99
2018-07-17T19:35:38.363Z,21.96
2018-07-17T19:38:09.814Z,21.86
2018-07-17T19:40:39.780Z,21.92
2018-07-17T19:43:09.500Z,21.86
2018-07-17T19:45:40.759Z,21.82
2018-07-17T19:48:10.195Z,21.80
2018-07-17T19:50:39.751Z,21.70
2018-07-17T19:53:09.265Z,21.69
2018-07-17T19:55:39.159Z,21.69
2018-07-17T19:58:08.780Z,21.71
2018-07-17T20:00:38.906Z,21.69
2018-07-17T20:03:08.871Z,21.69
2018-07-17T20:05:38.806Z,21.68
2018-07-17T20:08:08.728Z,21.62
2018-07-17T20:10:38.306Z,21.56
2018-07-17T20:13:07.681Z,21.53
2018-07-17T20:15:36.403Z,21.50
2018-07-17T20:18:05.099Z,21.49
2018-07-17T20:20:34.144Z,21.55
2018-07-17T20:23:02.847Z,21.46
2018-07-17T20:25:31.575Z,21.47
2018-07-17T20:28:00.297Z,21.46
2018-07-17T20:30:28.973Z,21.44
2018-07-17T20:32:57.731Z,21.41
2018-07-17T20:35:26.407Z,21.40
2018-07-17T20:37:55.269Z,21.37
2018-07-17T20:40:23.874Z,21.58
2018-07-17T20:42:52.414Z,21.50
2018-07-17T20:45:20.958Z,21.47
2018-07-17T20:47:49.749Z,21.34
2018-07-17T20:50:19.220Z,21.28
2018-07-17T20:52:48.580Z,21.26
2018-07-17T20:55:18.125Z,21.23
2018-07-17T20:57:47.531Z,21.17
2018-07-17T21:00:16.678Z,21.17
2018-07-17T21:02:45.676Z,21.16
2018-07-17T21:05:14.232Z,21.25
2018-07-17T21:07:42.697Z,21.24
2018-07-17T21:10:11.057Z,21.27
2018-07-17T21:12:40.453Z,21.17
2018-07-17T21:15:10.420Z,21.17
2018-07-17T21:17:39.697Z,21.16
2018-07-17T21:20:09.382Z,21.17
2018-07-17T21:22:38.829Z,21.13
2018-07-17T21:25:07.768Z,21.11
2018-07-17T21:27:36.109Z,21.25
2018-07-17T21:30:04.697Z,21.16
2018-07-17T21:32:33.054Z,21.13
2018-07-17T21:35:01.396Z,21.08
2018-07-17T21:37:29.765Z,21.06
2018-07-17T21:39:58.500Z,21.07
2018-07-17T21:42:26.838Z,21.13
2018-07-17T21:44:55.330Z,21.12
2018-07-17T21:47:23.677Z,21.07
2018-07-17T21:49:52.013Z,21.01
2018-07-17T21:52:20.341Z,20.99
2018-07-17T21:54:48.882Z,21.03
2018-07-17T21:57:18.398Z,20.93
2018-07-17T21:59:47.475Z,20.92
2018-07-17T22:02:16.973Z,20.97
2018-07-17T22:04:45.322Z,20.94
2018-07-17T22:07:13.665Z,20.96
2018-07-17T22:09:42.002Z,21.06
2018-07-17T22:12:11.004Z,21.09
2018-07-17T22:14:40.438Z,21.01
2018-07-17T22:17:10.778Z,21.03
2018-07-17T22:19:40.086Z,20.99
2018-07-17T22:22:08.805Z,20.96
2018-07-17T22:24:37.755Z,20.91
2018-07-17T22:27:06.122Z,20.90
2018-07-17T22:29:34.478Z,20.87
2018-07-17T22:32:02.830Z,20.83
2018-07-17T22:34:31.202Z,20.82
2018-07-17T22:36:59.536Z,20.84
2018-07-17T22:39:28.522Z,20.85
2018-07-17T22:41:56.856Z,20.84
2018-07-17T22:44:25.189Z,20.88
2018-07-17T22:46:53.535Z,20.84
2018-07-17T22:49:22.929Z,20.82
2018-07-17T22:51:53.004Z,20.82
2018-07-17T22:54:21.352Z,20.79
2018-07-17T22:56:49.738Z,20.82
2018-07-17T22:59:19.741Z,20.87
2018-07-17T23:01:49.213Z,20.89
2018-07-17T23:04:18.597Z,20.85
2018-07-17T23:06:48.317Z,20.83
2018-07-17T23:09:17.430Z,20.83
2018-07-17T23:11:46.861Z,20.84
2018-07-17T23:14:16.312Z,20.78
2018-07-17T23:16:44.658Z,20.85
2018-07-17T23:19:14.011Z,20.77
2018-07-17T23:21:42.354Z,20.81
2018-07-17T23:24:10.722Z,20.76
2018-07-17T23:26:39.848Z,20.70
2018-07-17T23:29:08.962Z,20.73
2018-07-17T23:31:37.349Z,20.70
2018-07-17T23:34:05.709Z,20.66
2018-07-17T23:36:34.054Z,20.65
2018-07-17T23:39:02.466Z,20.67
2018-07-17T23:41:30.927Z,20.72
2018-07-17T23:43:59.329Z,20.73
2018-07-17T23:46:27.707Z,20.74
2018-07-17T23:48:56.041Z,20.68
2018-07-17T23:51:24.425Z,20.65
2018-07-17T23:53:52.762Z,20.63
2018-07-17T23:56:21.125Z,20.65
2018-07-17T23:58:49.561Z,20.65
